Ardmore, PA

11:24 AM EDT on August 28, 2014 (GMT -0400)
Havertown | Change Station
CLOSE
Current Station
Personal Weather Station
Location: Havertown, PA
Elevation: 310 ft
Nearby Weather Stations

Elev 310 ft 39.97 °N, 75.31 °W | Updated 4 minutes ago

Clear
Clear
73.6 °F
Feels Like 76 °F
N
8.0
Wind Variable Wind from WNW
Gusts 13.0 mph

Today
High -- | Low -- °F
--% Chance of Precip.
Yesterday
High -- | Low -- °F
Precip. -- in
6:25 AM 7:38 PM
Waxing Crescent, 8% visible
Pressure 29.96 in
Visibility 10.0 miles
Clouds Few 30000 ft
Heat Index 76 °F
Dew Point 61 °F
Humidity 64%
Rainfall 0.00 in
Snow Depth Not available.
UV 7 out of 12
Pollen 10.00 out of 12
Ozone Good
PM2.5 Good
Flu Activity Not available.
METAR KPHL 281454Z 31012KT 10SM FEW300 24/12 A2996 RMK AO2 SLP145 T02390122 51010

More Conditions Fewer Conditions

Pressure 29.96 in
Visibility 10.0 miles
Clouds Few 30000 ft
Heat Index 76 °F
Dew Point 61 °F
Humidity 64%
Rainfall 0.00 in
Snow Depth Not available.
UV 7 out of 12
Pollen 10.00 out of 12
Ozone Good
PM2.5 Good
Flu Activity Not available.
METAR KPHL 281454Z 31012KT 10SM FEW300 24/12 A2996 RMK AO2 SLP145 T02390122 51010

More Conditions Fewer Conditions

10-Day Weather Forecast

Almanac

Astronomy

Aug. 28, 2014 Rise Set
Actual Time 6:25 AM EDT 7:38 PM EDT
Civil Twilight 5:57 AM EDT 8:06 PM EDT
Nautical Twilight 5:23 AM EDT 8:40 PM EDT
Astronomical Twilight 4:48 AM EDT 9:15 PM EDT
Moon 9:15 AM EDT 9:01 PM EDT
Length of Visible Light 14h 09m
Length of Day
13h 13m
Tomorrow will be 2m 30s shorter.
Waxing Crescent, 8% of the Moon is Illuminated
Today
Waxing Crescent
Sep 2
First Quarter
Sep 8
Full
Sep 15
Last Quarter
Sep 24
New

Today's Extremes

State Highs State Lows

Community

WunderPhotos

Upload Photos

1,747,984 photos uploaded!

Nearby

Air Quality

  Air Quality AQ Index Pollutant
Yesterday Unhealthy for Sensitive Groups
OZONE
Yesterday Moderate
PM2.5
Current Good
PM2.5
Current Good
OZONE
Thursday Good
OZONE
Thursday Good
PM2.5
Friday Moderate
OZONE
Friday Good
PM2.5
Saturday Moderate
OZONE
Saturday Moderate
PM2.5

Snow Depth

Station Depth Elevation
No new snow has been reported.

Earthquake Activity

City Distance Mag. Time & Date
No recent earthquake activity has been reported nearby.
Minimum magnitude displayed is 2.5.

Coastal Water Temperatures

Place Temperature
Ship John Shoal, NJ 77.0 °F
Cape May, NJ 80.1 °F
Reedy Point, DE 78.1 °F
Delaware City, DE 78.1 °F
Marcus Hook, PA 78.1 °F

Nearby Weather Stations